Time;durP1;ratioP1;P1;durP2;ratioP2;P2;SDS_P1;SDS_P2;PMS_P1;PMS_P2;Temp;Humidity;BMP_temperature;BMP_pressure;BME280_temperature;BME280_humidity;BME280_pressure;Samples;Min_cycle;Max_cycle;Signal;HPM_P1;HPM_P2
2021/11/11 00:02:23;;;;;;;27.17;14.30;;;6.50;99.90;;;;;;5044390;28;20068;-78
2021/11/11 00:04:52;;;;;;;26.05;15.00;;;6.50;99.90;;;;;;5019304;28;20044;-78
2021/11/11 00:07:19;;;;;;;27.23;14.52;;;6.40;99.90;;;;;;5020687;28;20047;-78
2021/11/11 00:09:46;;;;;;;29.23;15.27;;;6.40;99.90;;;;;;5022148;28;20029;-78
2021/11/11 00:12:13;;;;;;;26.88;14.88;;;6.30;99.90;;;;;;5064697;28;20025;-78
2021/11/11 00:14:39;;;;;;;23.85;14.52;;;6.30;99.90;;;;;;5034946;28;20049;-78
2021/11/11 00:17:07;;;;;;;24.50;13.95;;;6.20;99.90;;;;;;5007448;28;20432;-78
2021/11/11 00:19:33;;;;;;;25.05;14.77;;;6.20;99.90;;;;;;5033683;28;20051;-78
2021/11/11 00:22:00;;;;;;;28.70;15.32;;;6.10;99.90;;;;;;5051586;28;20036;-78
2021/11/11 00:24:26;;;;;;;24.33;14.88;;;6.10;99.90;;;;;;5034097;28;20052;-78
2021/11/11 00:26:53;;;;;;;29.80;14.98;;;6.10;99.90;;;;;;5049875;28;20491;-78
2021/11/11 00:29:19;;;;;;;24.95;14.68;;;6.10;99.90;;;;;;5016085;28;20045;-78
2021/11/11 00:31:46;;;;;;;23.90;14.13;;;6.00;99.90;;;;;;5018816;28;20476;-78
2021/11/11 00:34:14;;;;;;;27.63;14.90;;;6.00;99.90;;;;;;5042143;28;20037;-78
2021/11/11 00:36:40;;;;;;;24.13;14.57;;;6.00;99.90;;;;;;5014296;28;20037;-81
2021/11/11 00:39:07;;;;;;;22.27;12.73;;;6.00;99.90;;;;;;5050376;28;20396;-81
2021/11/11 00:41:34;;;;;;;24.67;14.38;;;5.90;99.90;;;;;;5054487;28;20036;-78
2021/11/11 00:44:02;;;;;;;22.65;13.70;;;5.90;99.90;;;;;;5036063;28;20041;-77
2021/11/11 00:46:30;;;;;;;24.83;13.82;;;5.80;99.90;;;;;;5055747;28;20041;-78
2021/11/11 00:48:56;;;;;;;27.88;14.10;;;5.80;99.90;;;;;;5057643;28;20033;-78
2021/11/11 00:51:23;;;;;;;25.90;14.32;;;5.80;99.90;;;;;;5024633;28;20044;-78
2021/11/11 00:53:49;;;;;;;25.40;14.68;;;5.80;99.90;;;;;;5020652;28;20036;-78
2021/11/11 00:56:16;;;;;;;24.08;14.25;;;5.70;99.90;;;;;;5055010;28;20037;-77
2021/11/11 00:58:45;;;;;;;23.70;13.75;;;5.70;99.90;;;;;;5025382;28;20056;-78
2021/11/11 01:01:12;;;;;;;23.73;12.43;;;5.70;99.90;;;;;;5050903;28;20044;-79
2021/11/11 01:03:41;;;;;;;24.02;14.43;;;5.70;99.90;;;;;;5032082;28;20569;-79
2021/11/11 01:06:08;;;;;;;22.60;13.63;;;5.80;99.90;;;;;;4997975;28;20037;-79
2021/11/11 01:08:35;;;;;;;23.85;15.25;;;5.80;99.90;;;;;;5026516;28;20255;-81
2021/11/11 01:11:11;;;;;;;24.45;14.85;;;5.90;99.90;;;;;;5026321;28;20025;-81
2021/11/11 01:13:38;;;;;;;26.13;15.45;;;6.00;99.90;;;;;;5042984;28;20044;-81
2021/11/11 01:16:05;;;;;;;23.50;15.02;;;6.10;99.90;;;;;;5030331;28;20049;-81
2021/11/11 01:18:32;;;;;;;24.33;15.65;;;6.20;99.90;;;;;;5036404;28;20036;-80
2021/11/11 01:20:59;;;;;;;24.35;16.40;;;6.20;99.90;;;;;;5026224;28;20044;-81
2021/11/11 01:23:26;;;;;;;27.25;15.48;;;6.20;99.90;;;;;;5038875;28;20044;-81
2021/11/11 01:25:53;;;;;;;24.17;16.17;;;6.30;99.90;;;;;;5046434;28;20040;-81
2021/11/11 01:28:24;;;;;;;25.42;15.63;;;6.40;99.90;;;;;;5039689;28;20037;-78
2021/11/11 01:30:51;;;;;;;26.70;17.05;;;6.40;99.90;;;;;;5046991;28;20044;-78
2021/11/11 01:33:26;;;;;;;29.20;17.88;;;6.50;99.90;;;;;;5022456;28;20024;-78
2021/11/11 01:35:54;;;;;;;26.50;15.85;;;6.60;99.90;;;;;;5021725;28;20512;-79
2021/11/11 01:38:27;;;;;;;24.88;14.80;;;6.60;99.90;;;;;;5030139;28;20429;-80
2021/11/11 01:40:56;;;;;;;24.85;15.30;;;6.70;99.90;;;;;;5029733;28;20029;-81
2021/11/11 01:43:27;;;;;;;23.42;14.50;;;6.70;99.90;;;;;;5054861;28;20369;-81
2021/11/11 01:45:56;;;;;;;25.10;15.93;;;6.80;99.90;;;;;;5037311;28;20507;-81
2021/11/11 01:48:26;;;;;;;22.20;13.70;;;6.80;99.90;;;;;;5051479;28;20483;-81
2021/11/11 01:50:57;;;;;;;23.52;14.90;;;6.80;99.90;;;;;;5033630;28;20487;-81
2021/11/11 01:53:27;;;;;;;27.35;15.23;;;6.90;99.90;;;;;;5008598;28;20391;-81
2021/11/11 01:55:56;;;;;;;24.15;14.48;;;6.90;99.90;;;;;;5036086;28;20384;-78
2021/11/11 01:58:26;;;;;;;24.98;14.20;;;7.00;99.90;;;;;;5028182;28;20036;-78
2021/11/11 02:00:59;;;;;;;22.92;14.90;;;7.00;99.90;;;;;;5010496;28;20033;-81
2021/11/11 02:03:31;;;;;;;25.38;15.00;;;7.10;99.90;;;;;;5050774;28;20039;-81
2021/11/11 02:06:02;;;;;;;24.45;14.75;;;7.00;99.90;;;;;;5046973;28;20047;-81
2021/11/11 02:08:44;;;;;;;21.50;14.15;;;7.10;99.90;;;;;;5032162;28;20036;-81
2021/11/11 02:11:11;;;;;;;23.25;14.52;;;7.20;99.90;;;;;;5020872;28;20047;-79
2021/11/11 02:13:38;;;;;;;23.05;14.68;;;7.20;99.90;;;;;;5033050;28;20033;-79
2021/11/11 02:16:11;;;;;;;33.72;16.10;;;7.20;99.90;;;;;;5045653;28;20037;-79
2021/11/11 02:18:38;;;;;;;25.77;14.75;;;7.30;99.90;;;;;;5050703;28;21277;-79
2021/11/11 02:21:04;;;;;;;27.52;16.65;;;7.30;99.90;;;;;;5041604;28;20029;-79
2021/11/11 02:23:46;;;;;;;24.33;14.95;;;7.30;99.90;;;;;;5041809;28;20056;-79
2021/11/11 02:26:41;;;;;;;26.00;15.02;;;7.30;99.90;;;;;;5033634;28;20467;-79
2021/11/11 02:29:20;;;;;;;25.65;15.35;;;7.40;99.90;;;;;;5021381;28;20041;-79
2021/11/11 02:31:47;;;;;;;23.23;14.98;;;7.40;99.90;;;;;;5043269;28;20021;-79
2021/11/11 02:34:20;;;;;;;25.33;15.57;;;7.40;99.90;;;;;;5036089;28;20714;-79
2021/11/11 02:36:55;;;;;;;27.00;15.43;;;7.40;99.90;;;;;;5035562;28;20029;-79
2021/11/11 02:39:22;;;;;;;29.45;16.27;;;7.50;99.90;;;;;;5039670;28;20495;-79
2021/11/11 02:41:49;;;;;;;25.25;16.75;;;7.50;99.90;;;;;;5036594;28;20037;-80
2021/11/11 02:44:19;;;;;;;27.67;16.67;;;7.50;99.90;;;;;;5023428;28;20036;-79
2021/11/11 02:46:46;;;;;;;25.38;16.02;;;7.50;99.90;;;;;;5018956;28;20041;-79
2021/11/11 02:49:12;;;;;;;28.42;16.02;;;7.50;99.90;;;;;;5036049;28;21290;-80
2021/11/11 02:51:39;;;;;;;27.92;16.00;;;7.50;99.90;;;;;;5070104;28;20037;-79
2021/11/11 02:54:06;;;;;;;28.00;15.98;;;7.50;99.90;;;;;;5026603;28;20059;-80
2021/11/11 02:56:34;;;;;;;27.08;16.13;;;7.50;99.90;;;;;;5052698;28;20028;-79
2021/11/11 02:59:01;;;;;;;31.27;19.00;;;7.60;99.90;;;;;;5003079;28;20045;-79
2021/11/11 03:01:28;;;;;;;32.28;20.60;;;7.50;99.90;;;;;;5036971;28;20518;-78
2021/11/11 03:03:55;;;;;;;33.83;20.15;;;7.50;99.90;;;;;;5053010;28;20037;-79
2021/11/11 03:06:22;;;;;;;34.47;20.40;;;7.50;99.90;;;;;;5055719;28;20044;-79
2021/11/11 03:08:50;;;;;;;30.80;17.73;;;7.50;99.90;;;;;;5018044;28;20040;-79
2021/11/11 03:11:17;;;;;;;28.80;16.08;;;7.50;99.90;;;;;;5070018;28;20024;-79
2021/11/11 03:13:57;;;;;;;28.00;15.77;;;7.40;99.90;;;;;;5012591;28;20040;-81
2021/11/11 03:16:24;;;;;;;31.05;17.17;;;7.40;99.90;;;;;;5053185;28;20549;-81
2021/11/11 03:18:51;;;;;;;27.92;16.63;;;7.40;99.90;;;;;;5032962;28;20048;-81
2021/11/11 03:21:18;;;;;;;29.23;16.02;;;7.40;99.90;;;;;;5042391;28;20035;-81
2021/11/11 03:23:44;;;;;;;24.42;15.40;;;7.40;99.90;;;;;;5034568;28;20049;-81
2021/11/11 03:26:11;;;;;;;25.60;14.95;;;7.40;99.90;;;;;;5055318;28;20048;-81
2021/11/11 03:28:42;;;;;;;29.85;16.80;;;7.40;99.90;;;;;;5048656;28;20052;-81
2021/11/11 03:31:11;;;;;;;26.95;15.82;;;7.40;99.90;;;;;;4997518;28;20040;-82
2021/11/11 03:33:37;;;;;;;24.33;15.68;;;7.40;99.90;;;;;;5053721;28;20033;-79
2021/11/11 03:36:04;;;;;;;26.10;15.60;;;7.40;99.90;;;;;;5035215;28;20041;-79
2021/11/11 03:38:31;;;;;;;26.63;15.30;;;7.40;99.90;;;;;;5034242;28;20032;-79
2021/11/11 03:40:59;;;;;;;26.13;15.82;;;7.50;99.90;;;;;;5035579;28;20492;-79
2021/11/11 03:43:34;;;;;;;29.52;16.73;;;7.50;99.90;;;;;;5026198;28;20074;-79
2021/11/11 03:46:12;;;;;;;28.83;16.25;;;7.40;99.90;;;;;;5034861;28;20037;-79
2021/11/11 03:48:39;;;;;;;27.55;17.15;;;7.40;99.90;;;;;;5014919;28;20047;-79
2021/11/11 03:51:07;;;;;;;31.35;16.05;;;7.40;99.90;;;;;;5047219;28;20029;-79
2021/11/11 03:53:34;;;;;;;30.60;17.42;;;7.40;99.90;;;;;;5035691;28;20033;-78
2021/11/11 03:56:04;;;;;;;29.88;16.90;;;7.40;99.90;;;;;;5058375;28;20036;-79
2021/11/11 03:58:30;;;;;;;26.17;16.70;;;7.40;99.90;;;;;;5032702;28;20041;-78
2021/11/11 04:00:57;;;;;;;29.55;16.58;;;7.40;99.90;;;;;;5035602;28;20040;-78
2021/11/11 04:03:24;;;;;;;26.35;16.35;;;7.40;99.90;;;;;;5035511;28;20044;-78
2021/11/11 04:05:50;;;;;;;34.28;19.15;;;7.40;99.90;;;;;;5032896;28;20036;-78
2021/11/11 04:08:24;;;;;;;29.58;17.58;;;7.40;99.90;;;;;;5019235;28;20048;-79
2021/11/11 04:10:54;;;;;;;27.08;16.73;;;7.40;99.90;;;;;;5018218;28;20037;-78
2021/11/11 04:13:23;;;;;;;29.63;17.73;;;7.30;99.90;;;;;;5069144;28;20044;-78
2021/11/11 04:15:51;;;;;;;30.98;18.17;;;7.40;99.90;;;;;;5015317;28;20064;-78
2021/11/11 04:18:18;;;;;;;26.70;16.13;;;7.30;99.90;;;;;;5051108;28;20028;-79
2021/11/11 04:20:45;;;;;;;30.08;16.65;;;7.40;99.90;;;;;;5049509;28;20037;-79
2021/11/11 04:23:14;;;;;;;29.98;17.05;;;7.40;99.90;;;;;;5002879;28;20036;-79
2021/11/11 04:28:21;;;;;;;28.35;16.40;;;7.40;99.90;;;;;;5049142;28;20044;-78
2021/11/11 04:30:51;;;;;;;27.45;15.68;;;7.40;99.90;;;;;;5012983;28;20033;-78
2021/11/11 04:33:18;;;;;;;26.00;15.95;;;7.50;99.90;;;;;;5055908;28;20044;-78
2021/11/11 04:35:49;;;;;;;30.10;16.10;;;7.50;99.90;;;;;;5032777;28;20040;-78
2021/11/11 04:38:31;;;;;;;25.40;16.33;;;7.50;99.90;;;;;;5041531;28;20037;-78
2021/11/11 04:43:59;;;;;;;25.92;16.13;;;7.50;99.90;;;;;;5057707;28;20043;-78
2021/11/11 04:49:20;;;;;;;26.48;15.32;;;7.50;99.90;;;;;;5053851;28;20051;-78
2021/11/11 04:52:11;;;;;;;25.17;14.48;;;7.50;99.90;;;;;;5035041;28;20029;-78
2021/11/11 05:05:20;;;;;;;21.90;14.85;;;7.50;99.90;;;;;;5068689;28;20044;-78
2021/11/11 05:07:48;;;;;;;32.53;16.50;;;7.60;99.90;;;;;;5051212;28;20036;-78
2021/11/11 05:10:16;;;;;;;25.70;14.88;;;7.60;99.90;;;;;;5023065;28;20036;-78
2021/11/11 05:12:44;;;;;;;29.67;16.77;;;7.60;99.90;;;;;;5051855;28;20052;-78
2021/11/11 05:15:11;;;;;;;29.23;16.77;;;7.60;99.90;;;;;;5030088;28;20029;-78
2021/11/11 05:17:41;;;;;;;34.75;18.23;;;7.60;99.90;;;;;;5012566;28;20420;-78
2021/11/11 05:20:08;;;;;;;32.03;17.98;;;7.60;99.90;;;;;;5039462;28;20051;-78
2021/11/11 05:22:35;;;;;;;36.65;18.17;;;7.60;99.90;;;;;;5053069;28;20041;-77
2021/11/11 05:25:03;;;;;;;32.50;16.50;;;7.60;99.90;;;;;;5026642;28;20032;-78
2021/11/11 05:27:30;;;;;;;31.63;16.60;;;7.60;99.90;;;;;;5053439;28;20036;-78
2021/11/11 05:29:58;;;;;;;25.13;15.75;;;7.60;99.90;;;;;;5018571;28;20052;-78
2021/11/11 05:32:25;;;;;;;27.83;15.35;;;7.60;99.90;;;;;;5024497;28;20056;-78
2021/11/11 05:34:52;;;;;;;27.90;16.73;;;7.60;99.90;;;;;;5034745;28;20029;-78
2021/11/11 05:37:20;;;;;;;25.63;15.48;;;7.70;99.90;;;;;;5032796;28;20403;-78
2021/11/11 05:39:48;;;;;;;28.02;15.80;;;7.70;99.90;;;;;;5018428;28;20033;-78
2021/11/11 05:42:15;;;;;;;32.20;16.75;;;7.70;99.90;;;;;;5020717;28;20375;-78
2021/11/11 05:44:41;;;;;;;29.52;16.52;;;7.70;99.90;;;;;;5071562;28;20037;-77
2021/11/11 05:47:08;;;;;;;26.88;17.17;;;7.70;99.90;;;;;;5045359;28;20036;-81
2021/11/11 05:49:36;;;;;;;28.90;16.23;;;7.70;99.90;;;;;;5022282;28;20040;-81
2021/11/11 05:52:03;;;;;;;26.67;15.73;;;7.80;99.90;;;;;;5038366;28;20353;-81
2021/11/11 05:54:32;;;;;;;28.48;16.20;;;7.70;99.90;;;;;;5033716;28;20051;-81
2021/11/11 05:56:59;;;;;;;27.63;16.17;;;7.70;99.90;;;;;;5027298;28;20052;-82
2021/11/11 05:59:29;;;;;;;32.10;17.40;;;7.70;99.90;;;;;;5033614;28;20044;-81
2021/11/11 06:01:57;;;;;;;30.65;17.77;;;7.70;99.90;;;;;;5038836;28;20045;-81
2021/11/11 06:04:24;;;;;;;31.38;19.42;;;7.70;99.90;;;;;;5058873;28;20033;-81
2021/11/11 06:06:54;;;;;;;26.83;17.70;;;7.70;99.90;;;;;;5032776;28;20043;-82
2021/11/11 06:09:20;;;;;;;32.45;18.52;;;7.70;99.90;;;;;;5020942;28;20045;-79
2021/11/11 06:11:47;;;;;;;30.17;17.70;;;7.70;99.90;;;;;;5049151;28;20030;-81
2021/11/11 06:14:13;;;;;;;28.70;18.27;;;7.70;99.90;;;;;;5017288;28;20059;-80
2021/11/11 06:16:40;;;;;;;30.05;18.65;;;7.70;99.90;;;;;;4994355;28;20059;-82
2021/11/11 06:19:09;;;;;;;29.50;18.25;;;7.70;99.90;;;;;;5037871;28;20488;-80
2021/11/11 06:21:39;;;;;;;29.15;17.85;;;7.70;99.90;;;;;;5026598;28;20040;-79
2021/11/11 06:24:07;;;;;;;32.63;17.88;;;7.70;99.90;;;;;;5067152;28;20383;-78
2021/11/11 06:26:36;;;;;;;27.23;15.73;;;7.70;99.90;;;;;;5033666;28;20029;-79
2021/11/11 06:29:05;;;;;;;33.20;18.60;;;7.70;99.90;;;;;;5033783;28;20068;-78
2021/11/11 06:31:31;;;;;;;29.98;17.33;;;7.80;99.90;;;;;;5033823;28;20029;-82
2021/11/11 06:33:59;;;;;;;33.25;19.02;;;7.80;99.90;;;;;;5033672;28;20032;-79
2021/11/11 06:36:26;;;;;;;31.77;18.88;;;7.80;99.90;;;;;;5035783;28;20039;-79
2021/11/11 06:38:52;;;;;;;30.55;18.08;;;7.80;99.90;;;;;;5036529;28;20029;-77
2021/11/11 06:41:19;;;;;;;29.05;18.10;;;7.80;99.90;;;;;;5038949;28;20040;-77
2021/11/11 06:43:49;;;;;;;26.55;16.08;;;7.80;99.90;;;;;;5036909;28;20033;-79
2021/11/11 06:46:15;;;;;;;33.25;18.02;;;7.80;99.90;;;;;;5037172;28;20080;-79
2021/11/11 06:48:42;;;;;;;36.30;21.15;;;7.80;99.90;;;;;;5039669;28;20029;-80
2021/11/11 06:51:08;;;;;;;33.05;20.30;;;7.80;99.90;;;;;;5035490;28;20036;-78
2021/11/11 06:53:35;;;;;;;33.88;19.88;;;7.80;99.90;;;;;;5067491;28;20037;-79
2021/11/11 06:56:02;;;;;;;28.38;17.75;;;7.80;99.90;;;;;;5053639;28;20037;-79
2021/11/11 06:58:28;;;;;;;30.55;17.45;;;7.80;99.90;;;;;;5048964;28;20033;-80
2021/11/11 07:01:01;;;;;;;33.80;19.75;;;7.80;99.90;;;;;;5013541;28;20044;-78
2021/11/11 07:03:29;;;;;;;26.73;17.17;;;7.80;99.90;;;;;;5030234;28;20036;-79
2021/11/11 07:05:57;;;;;;;27.88;16.38;;;7.80;99.90;;;;;;5036741;28;20040;-81
2021/11/11 07:08:23;;;;;;;31.92;18.00;;;7.80;99.90;;;;;;5018087;28;20036;-81
2021/11/11 07:10:52;;;;;;;31.70;18.88;;;7.80;99.90;;;;;;5051348;28;20029;-80
2021/11/11 07:13:20;;;;;;;27.50;17.85;;;7.90;99.90;;;;;;5050804;28;20033;-81
2021/11/11 07:15:48;;;;;;;27.65;17.17;;;7.80;99.90;;;;;;5057618;28;20028;-78
2021/11/11 07:18:15;;;;;;;29.80;16.33;;;7.80;99.90;;;;;;5023978;28;20377;-78
2021/11/11 07:20:44;;;;;;;33.95;18.73;;;7.90;99.90;;;;;;4996563;28;20036;-79
2021/11/11 07:23:14;;;;;;;29.92;19.75;;;7.90;99.90;;;;;;5042710;28;20047;-79
2021/11/11 07:25:41;;;;;;;37.83;21.27;;;7.90;99.90;;;;;;5029958;28;20426;-79
2021/11/11 07:28:07;;;;;;;34.28;20.58;;;7.80;99.90;;;;;;5057771;28;20036;-84
2021/11/11 07:30:36;;;;;;;35.53;22.98;;;7.90;99.90;;;;;;5028652;28;20032;-82
2021/11/11 07:33:03;;;;;;;34.60;20.35;;;7.80;99.90;;;;;;5042566;28;20507;-83
2021/11/11 07:35:31;;;;;;;30.05;17.55;;;7.80;99.90;;;;;;5070337;28;20394;-86
2021/11/11 07:37:59;;;;;;;29.30;18.00;;;7.90;99.90;;;;;;5043460;28;20041;-84
2021/11/11 07:40:26;;;;;;;32.22;18.67;;;7.90;99.90;;;;;;5029120;28;20043;-82
2021/11/11 07:42:55;;;;;;;35.72;19.23;;;7.90;99.90;;;;;;5034610;28;20423;-79
2021/11/11 07:45:34;;;;;;;40.97;21.45;;;8.00;99.90;;;;;;5037792;28;20502;-79
2021/11/11 07:48:02;;;;;;;38.13;20.35;;;8.00;99.90;;;;;;5045718;28;20036;-85
2021/11/11 07:50:33;;;;;;;35.17;19.60;;;8.00;99.90;;;;;;5023844;28;20595;-79
2021/11/11 07:53:01;;;;;;;35.65;20.52;;;8.00;99.90;;;;;;5049505;28;20040;-79
2021/11/11 07:55:29;;;;;;;31.45;18.52;;;8.00;99.90;;;;;;5025750;28;20091;-80
2021/11/11 07:57:57;;;;;;;32.17;19.25;;;8.00;99.90;;;;;;5037719;28;20032;-79
2021/11/11 08:00:24;;;;;;;29.98;18.02;;;8.10;99.90;;;;;;5033186;28;20037;-82
2021/11/11 08:02:51;;;;;;;32.25;19.60;;;8.10;99.90;;;;;;5037799;28;20029;-81
2021/11/11 08:05:19;;;;;;;31.48;18.60;;;8.10;99.90;;;;;;5015715;28;20044;-78
2021/11/11 08:07:47;;;;;;;35.47;21.27;;;8.20;99.90;;;;;;5044590;28;20041;-83
2021/11/11 08:10:15;;;;;;;30.40;19.63;;;8.20;99.90;;;;;;5031811;28;20381;-84
2021/11/11 08:12:42;;;;;;;35.50;21.88;;;8.20;99.90;;;;;;5030009;28;20032;-80
2021/11/11 08:15:10;;;;;;;36.22;22.00;;;8.20;99.90;;;;;;5032251;28;20029;-80
2021/11/11 08:17:37;;;;;;;32.55;20.60;;;8.20;99.90;;;;;;5015172;28;20056;-80
2021/11/11 08:20:04;;;;;;;31.08;19.42;;;8.10;99.90;;;;;;5015988;28;20051;-81
2021/11/11 08:22:31;;;;;;;35.28;20.15;;;8.10;99.90;;;;;;5048925;28;20036;-80
2021/11/11 08:24:58;;;;;;;36.13;22.25;;;8.20;99.90;;;;;;5049734;28;20041;-81
2021/11/11 08:27:25;;;;;;;30.27;19.35;;;8.20;99.90;;;;;;5026117;28;20492;-80
2021/11/11 08:29:54;;;;;;;35.15;20.15;;;8.20;99.90;;;;;;5047314;28;20040;-80
2021/11/11 08:32:21;;;;;;;31.45;19.40;;;8.20;99.90;;;;;;5048374;28;20487;-79
2021/11/11 08:34:49;;;;;;;33.97;19.92;;;8.30;99.90;;;;;;5066027;28;20021;-82
2021/11/11 08:37:16;;;;;;;32.90;19.40;;;8.20;99.90;;;;;;5037146;28;20039;-78
2021/11/11 08:39:43;;;;;;;30.15;19.98;;;8.30;99.90;;;;;;5050258;28;20789;-88
2021/11/11 08:42:11;;;;;;;36.85;21.08;;;8.30;99.90;;;;;;5050467;28;20514;-81
2021/11/11 08:44:43;;;;;;;33.53;20.38;;;8.30;99.90;;;;;;5034550;28;20033;-76
2021/11/11 08:47:16;;;;;;;31.75;19.80;;;8.40;99.90;;;;;;5038702;28;20032;-78
2021/11/11 08:49:45;;;;;;;34.50;20.85;;;8.40;99.90;;;;;;5047301;28;20040;-77
2021/11/11 08:52:13;;;;;;;34.58;19.33;;;8.50;99.90;;;;;;5058084;28;20029;-77
2021/11/11 08:54:39;;;;;;;35.53;21.48;;;8.50;99.90;;;;;;5033492;28;20033;-77
2021/11/11 08:57:07;;;;;;;34.85;20.83;;;8.50;99.90;;;;;;5049668;28;20032;-77
2021/11/11 08:59:34;;;;;;;34.25;20.88;;;8.50;99.90;;;;;;5034988;28;20124;-78
2021/11/11 09:02:01;;;;;;;32.70;20.52;;;8.50;99.90;;;;;;5050597;28;20040;-78
2021/11/11 09:04:28;;;;;;;35.03;21.98;;;8.60;99.90;;;;;;5043568;28;20269;-80
2021/11/11 09:06:54;;;;;;;32.38;19.42;;;8.60;99.90;;;;;;5024451;28;20519;-78
2021/11/11 09:09:21;;;;;;;33.42;20.85;;;8.70;99.90;;;;;;5041249;28;20028;-79
2021/11/11 09:11:48;;;;;;;31.42;20.45;;;8.70;99.90;;;;;;5052422;28;20037;-79
2021/11/11 09:14:15;;;;;;;33.45;20.13;;;8.80;99.90;;;;;;5041787;28;20063;-78
2021/11/11 09:16:43;;;;;;;33.35;21.08;;;8.80;99.90;;;;;;5051538;28;20045;-78
2021/11/11 09:19:10;;;;;;;34.00;20.80;;;8.80;99.90;;;;;;5000422;28;20039;-79
2021/11/11 09:21:40;;;;;;;30.20;20.23;;;8.90;99.90;;;;;;5008998;28;20037;-78
2021/11/11 09:24:10;;;;;;;30.17;20.55;;;8.90;99.90;;;;;;5048543;28;20048;-80
2021/11/11 09:26:38;;;;;;;32.40;20.92;;;9.00;99.90;;;;;;5054937;28;20052;-79
2021/11/11 09:29:07;;;;;;;33.22;20.42;;;9.10;99.90;;;;;;5066365;28;20029;-80
2021/11/11 09:31:36;;;;;;;32.78;20.10;;;9.10;99.90;;;;;;5017243;28;20047;-80
2021/11/11 09:34:04;;;;;;;32.30;20.52;;;9.20;99.90;;;;;;5043301;28;20044;-79
2021/11/11 09:36:31;;;;;;;34.28;19.58;;;9.30;99.90;;;;;;5037385;28;20064;-80
2021/11/11 09:38:57;;;;;;;37.13;20.83;;;9.40;99.90;;;;;;5038295;28;20152;-79
2021/11/11 09:41:24;;;;;;;34.60;22.67;;;9.40;99.90;;;;;;5037168;28;20063;-79
2021/11/11 09:43:52;;;;;;;32.22;19.45;;;9.50;99.90;;;;;;5054274;28;20056;-78
2021/11/11 09:46:20;;;;;;;30.52;19.95;;;9.60;99.90;;;;;;5034939;28;20464;-79
2021/11/11 09:48:48;;;;;;;34.80;19.13;;;9.60;99.90;;;;;;5035869;28;20048;-85
2021/11/11 09:51:19;;;;;;;34.15;19.52;;;9.70;99.90;;;;;;5035114;28;20498;-79
2021/11/11 09:59:10;;;;;;;33.22;20.75;;;9.90;99.90;;;;;;5053355;28;20052;-80
2021/11/11 10:01:37;;;;;;;34.67;20.80;;;10.00;99.90;;;;;;5052970;28;20347;-81
2021/11/11 10:04:03;;;;;;;36.08;20.30;;;10.00;99.90;;;;;;5051052;28;20044;-80
2021/11/11 10:06:31;;;;;;;35.80;21.98;;;10.10;99.90;;;;;;5051252;28;20614;-80
2021/11/11 10:09:00;;;;;;;37.35;22.35;;;10.20;99.90;;;;;;5030580;28;20043;-80
2021/11/11 10:11:36;;;;;;;37.60;21.25;;;10.30;99.90;;;;;;5046875;28;20036;-79
2021/11/11 10:14:04;;;;;;;39.90;24.42;;;10.30;99.90;;;;;;5022254;28;20036;-77
2021/11/11 10:16:47;;;;;;;36.63;22.33;;;10.40;99.90;;;;;;5014572;28;20056;-79
2021/11/11 10:19:15;;;;;;;40.42;23.05;;;10.50;99.90;;;;;;5050066;28;20036;-81
2021/11/11 10:22:14;;;;;;;35.92;22.58;;;10.50;99.90;;;;;;5014093;28;20037;-80
2021/11/11 10:24:50;;;;;;;36.30;21.23;;;10.60;99.90;;;;;;5031793;28;20529;-90
2021/11/11 10:27:36;;;;;;;35.00;21.55;;;10.60;99.90;;;;;;5034191;28;20037;-78
2021/11/11 10:30:16;;;;;;;34.90;20.05;;;10.70;99.90;;;;;;5041610;28;20485;-77
2021/11/11 10:32:49;;;;;;;32.95;19.67;;;10.80;99.90;;;;;;5014514;28;20036;-77
2021/11/11 10:35:28;;;;;;;35.40;22.33;;;10.80;99.90;;;;;;5041853;28;20040;-78
2021/11/11 10:37:54;;;;;;;35.30;20.73;;;10.90;99.90;;;;;;5062619;28;20032;-79
2021/11/11 10:40:25;;;;;;;37.42;21.92;;;10.90;99.90;;;;;;5024726;28;20507;-77
2021/11/11 10:42:54;;;;;;;36.15;20.55;;;11.00;99.90;;;;;;5003445;28;20041;-78
2021/11/11 10:45:28;;;;;;;34.65;20.33;;;11.00;99.90;;;;;;5026031;28;20473;-79
2021/11/11 10:47:59;;;;;;;38.75;21.55;;;11.10;99.90;;;;;;5030546;28;20033;-79
2021/11/11 10:50:33;;;;;;;32.80;18.80;;;11.20;99.90;;;;;;5031490;28;20032;-79
2021/11/11 10:53:02;;;;;;;34.83;20.00;;;11.20;99.90;;;;;;5029319;28;20037;-79
2021/11/11 10:55:40;;;;;;;33.83;20.27;;;11.30;99.90;;;;;;5046977;28;20033;-79
2021/11/11 10:58:21;;;;;;;30.88;19.80;;;11.40;99.90;;;;;;5033541;28;20481;-79
2021/11/11 11:00:47;;;;;;;31.10;18.98;;;11.50;99.90;;;;;;5029865;28;20045;-78
2021/11/11 11:03:18;;;;;;;34.13;20.55;;;11.60;99.90;;;;;;5045325;28;20044;-79
2021/11/11 11:06:06;;;;;;;32.25;20.05;;;11.80;99.90;;;;;;5047905;28;20028;-79
2021/11/11 11:08:49;;;;;;;41.20;22.05;;;11.90;99.90;;;;;;5062776;28;20045;-79
2021/11/11 11:11:19;;;;;;;45.28;23.10;;;11.90;99.90;;;;;;5045811;28;20044;-79
2021/11/11 11:13:54;;;;;;;31.55;19.13;;;11.90;99.90;;;;;;5037858;28;20245;-80
2021/11/11 11:16:22;;;;;;;33.92;19.15;;;11.90;99.90;;;;;;5048636;28;20055;-80
2021/11/11 11:18:58;;;;;;;41.28;25.65;;;11.90;99.90;;;;;;5017454;28;20032;-80
2021/11/11 11:21:37;;;;;;;35.88;22.60;;;12.00;99.90;;;;;;5040712;28;20143;-80
2021/11/11 11:24:11;;;;;;;38.15;20.45;;;12.00;99.90;;;;;;5049877;28;20388;-79
2021/11/11 11:26:41;;;;;;;33.05;19.30;;;12.00;99.90;;;;;;5049478;28;20051;-80
2021/11/11 11:32:07;;;;;;;38.90;20.58;;;12.10;99.90;;;;;;5068217;28;20036;-79
2021/11/11 11:34:36;;;;;;;37.85;20.10;;;12.00;99.90;;;;;;5053998;28;20068;-79
2021/11/11 11:37:23;;;;;;;34.65;17.63;;;11.90;99.90;;;;;;5033602;28;20029;-79
2021/11/11 11:39:59;;;;;;;32.28;18.25;;;11.90;99.90;;;;;;5015255;28;20515;-79
2021/11/11 11:42:35;;;;;;;33.78;20.02;;;11.90;99.90;;;;;;5044546;28;20029;-80
2021/11/11 11:45:21;;;;;;;75.45;59.53;;;11.90;99.90;;;;;;5067075;28;20491;-80
2021/11/11 11:47:53;;;;;;;52.75;35.90;;;11.80;99.90;;;;;;5063639;28;20025;-81
2021/11/11 11:50:31;;;;;;;45.33;26.53;;;11.90;99.90;;;;;;5023604;28;20033;-81
2021/11/11 11:53:03;;;;;;;40.35;26.48;;;11.80;99.90;;;;;;5035480;28;20048;-80
2021/11/11 11:55:48;;;;;;;42.78;22.58;;;11.80;99.90;;;;;;5031282;28;20059;-80
2021/11/11 12:06:54;;;;;;;31.27;18.60;;;11.70;99.90;;;;;;5022296;28;20060;-79
2021/11/11 12:09:37;;;;;;;33.10;19.00;;;11.60;99.90;;;;;;5022458;28;20040;-79
2021/11/11 12:15:47;;;;;;;31.55;19.65;;;11.60;99.90;;;;;;5057112;28;20400;-78
2021/11/11 12:40:05;;;;;;;34.92;23.05;;;11.50;99.90;;;;;;5051466;28;20032;-81
2021/11/11 12:42:35;;;;;;;44.13;26.67;;;11.60;99.90;;;;;;5057686;28;20028;-80
2021/11/11 12:45:10;;;;;;;38.78;22.45;;;11.60;99.90;;;;;;5019253;28;20041;-79
2021/11/11 12:47:59;;;;;;;40.65;21.98;;;11.60;99.90;;;;;;5043084;28;20033;-80
2021/11/11 12:50:37;;;;;;;30.27;20.77;;;11.60;99.90;;;;;;5031835;28;20037;-80
2021/11/11 12:53:13;;;;;;;33.50;21.77;;;11.60;99.90;;;;;;5030537;28;20037;-79
2021/11/11 12:55:52;;;;;;;31.75;19.83;;;11.60;99.90;;;;;;5023701;28;20033;-85
2021/11/11 13:22:04;;;;;;;38.65;22.90;;;11.10;99.90;;;;;;5119602;27;20105;-84
2021/11/11 14:27:59;;;;;;;27.60;18.73;;;11.80;99.90;;;;;;5039070;28;20043;-80
2021/11/11 15:19:11;;;;;;;27.75;18.38;;;11.30;99.90;;;;;;5033054;28;20040;-78
2021/11/11 16:00:51;;;;;;;30.65;19.17;;;11.10;99.90;;;;;;5000914;28;20063;-81
2021/11/11 16:25:12;;;;;;;36.00;21.80;;;10.80;99.90;;;;;;5052272;28;20039;-77
2021/11/11 16:27:40;;;;;;;31.83;19.50;;;10.80;99.90;;;;;;5027045;28;20400;-79
2021/11/11 16:30:11;;;;;;;32.58;20.45;;;10.70;99.90;;;;;;5038292;28;20044;-79
2021/11/11 16:32:38;;;;;;;35.78;22.48;;;10.70;99.90;;;;;;5017028;28;20503;-80
2021/11/11 16:35:07;;;;;;;35.28;22.20;;;10.70;99.90;;;;;;5031909;28;20480;-80
2021/11/11 16:37:36;;;;;;;35.92;21.98;;;10.70;99.90;;;;;;5002315;28;20424;-80
2021/11/11 16:40:09;;;;;;;37.35;22.55;;;10.70;99.90;;;;;;4999668;28;20358;-81
2021/11/11 16:42:36;;;;;;;32.47;21.10;;;10.60;99.90;;;;;;5016352;28;20487;-82
2021/11/11 16:45:03;;;;;;;36.15;21.77;;;10.70;99.90;;;;;;5032724;28;20048;-81
2021/11/11 16:47:30;;;;;;;30.85;19.35;;;10.70;99.90;;;;;;5016270;28;20040;-81
2021/11/11 16:49:58;;;;;;;33.58;22.38;;;10.60;99.90;;;;;;5019723;28;20044;-82
2021/11/11 16:52:25;;;;;;;32.95;23.38;;;10.60;99.90;;;;;;5035242;28;20530;-84
2021/11/11 16:54:52;;;;;;;37.90;23.63;;;10.60;99.90;;;;;;5020391;28;20036;-83
2021/11/11 16:57:18;;;;;;;35.58;23.88;;;10.60;99.90;;;;;;5012801;28;20037;-84
2021/11/11 16:59:45;;;;;;;34.80;24.00;;;10.50;99.90;;;;;;5020647;28;20051;-80
2021/11/11 17:02:12;;;;;;;34.53;22.90;;;10.50;99.90;;;;;;5005497;28;20400;-81
2021/11/11 17:04:38;;;;;;;36.53;23.42;;;10.50;99.90;;;;;;5055255;28;20040;-79